createdAt,value
2018-06-24T00:02:25.483Z,17.69
2018-06-24T00:04:54.431Z,17.41
2018-06-24T00:07:23.391Z,17.49
2018-06-24T00:09:52.382Z,17.51
2018-06-24T00:12:24.281Z,17.55
2018-06-24T00:14:53.259Z,17.57
2018-06-24T00:17:22.231Z,17.58
2018-06-24T00:19:51.212Z,17.62
2018-06-24T00:22:20.156Z,17.57
2018-06-24T00:24:49.143Z,17.54
2018-06-24T00:27:18.083Z,17.59
2018-06-24T00:29:47.102Z,17.61
2018-06-24T00:32:16.050Z,17.61
2018-06-24T00:34:45.035Z,17.50
2018-06-24T00:37:14.052Z,17.47
2018-06-24T00:39:43.035Z,17.51
2018-06-24T00:42:12.042Z,17.59
2018-06-24T00:44:41.041Z,17.61
2018-06-24T00:47:10.019Z,17.64
2018-06-24T00:49:39.017Z,17.53
2018-06-24T00:52:07.950Z,17.48
2018-06-24T00:54:36.981Z,17.42
2018-06-24T00:57:05.933Z,17.40
2018-06-24T00:59:46.006Z,17.41
2018-06-24T01:02:14.998Z,17.38
2018-06-24T01:04:43.963Z,17.31
2018-06-24T01:07:12.909Z,17.30
2018-06-24T01:09:41.929Z,17.22
2018-06-24T01:12:10.881Z,17.25
2018-06-24T01:14:39.870Z,17.15
2018-06-24T01:17:08.991Z,17.23
2018-06-24T01:19:37.980Z,17.28
2018-06-24T01:22:07.804Z,17.28
2018-06-24T01:24:36.790Z,17.30
2018-06-24T01:27:05.725Z,16.85
2018-06-24T01:29:34.713Z,16.81
2018-06-24T01:32:03.664Z,16.58
2018-06-24T01:34:32.688Z,16.58
2018-06-24T01:37:01.652Z,16.13
2018-06-24T01:39:30.675Z,15.79
2018-06-24T01:41:59.626Z,15.66
2018-06-24T01:44:28.579Z,15.78
2018-06-24T01:46:57.667Z,16.14
2018-06-24T01:49:26.672Z,16.48
2018-06-24T01:51:55.682Z,16.70
2018-06-24T01:54:24.664Z,16.86
2018-06-24T01:56:53.685Z,16.95
2018-06-24T01:59:22.661Z,17.00
2018-06-24T02:01:51.754Z,17.05
2018-06-24T02:04:21.033Z,17.10
2018-06-24T02:06:50.342Z,17.11
2018-06-24T02:09:19.646Z,17.10
2018-06-24T02:11:48.949Z,17.09
2018-06-24T02:14:17.918Z,16.94
2018-06-24T02:16:46.926Z,16.94
2018-06-24T02:19:15.842Z,16.92
2018-06-24T02:21:44.850Z,16.92
2018-06-24T02:24:13.823Z,16.82
2018-06-24T02:26:42.832Z,16.72
2018-06-24T02:29:11.798Z,16.66
2018-06-24T02:31:40.790Z,16.73
2018-06-24T02:34:09.769Z,16.75
2018-06-24T02:36:38.761Z,16.73
2018-06-24T02:39:09.562Z,16.76
2018-06-24T02:41:38.546Z,16.72
2018-06-24T02:44:07.537Z,16.66
2018-06-24T02:46:36.537Z,16.64
2018-06-24T02:49:05.548Z,16.71
2018-06-24T02:51:34.526Z,16.61
2018-06-24T02:54:03.506Z,16.53
2018-06-24T02:56:32.497Z,16.69
2018-06-24T02:59:01.446Z,16.78
2018-06-24T03:01:30.562Z,16.52
2018-06-24T03:03:59.489Z,16.52
2018-06-24T03:06:28.500Z,16.62
2018-06-24T03:08:57.452Z,16.66
2018-06-24T03:11:26.432Z,16.71
2018-06-24T03:13:55.405Z,16.64
2018-06-24T03:16:24.475Z,16.59
2018-06-24T03:18:53.402Z,16.61
2018-06-24T03:21:22.505Z,16.46
2018-06-24T03:23:51.492Z,16.58
2018-06-24T03:26:20.512Z,16.60
2018-06-24T03:28:49.462Z,16.54
2018-06-24T03:31:18.391Z,16.36
2018-06-24T03:33:47.519Z,16.25
2018-06-24T03:36:16.462Z,16.40
2018-06-24T03:38:45.462Z,16.41
2018-06-24T03:41:14.391Z,16.42
2018-06-24T03:43:43.533Z,16.36
2018-06-24T03:46:12.481Z,16.30
2018-06-24T03:48:41.483Z,16.15
2018-06-24T03:51:10.439Z,16.17
2018-06-24T03:53:39.442Z,16.29
2018-06-24T03:56:08.414Z,16.26
2018-06-24T03:58:37.428Z,16.29
2018-06-24T04:01:06.423Z,16.24
2018-06-24T04:03:35.392Z,16.29
2018-06-24T04:06:04.375Z,16.23
2018-06-24T04:08:33.405Z,16.06
2018-06-24T04:11:02.445Z,16.11
2018-06-24T04:13:31.422Z,16.04
2018-06-24T04:16:05.097Z,16.11
2018-06-24T04:18:39.306Z,16.05
2018-06-24T04:21:08.260Z,16.00
2018-06-24T04:23:37.242Z,16.00
2018-06-24T04:26:06.989Z,15.97
2018-06-24T04:28:36.026Z,15.94
2018-06-24T04:31:04.983Z,15.83
2018-06-24T04:33:34.651Z,15.85
2018-06-24T04:36:04.197Z,15.71
2018-06-24T04:38:33.230Z,15.78
2018-06-24T04:41:02.394Z,15.88
2018-06-24T04:43:31.402Z,16.00
2018-06-24T04:46:00.998Z,16.08
2018-06-24T04:48:30.155Z,16.22
2018-06-24T04:50:59.133Z,16.30
2018-06-24T04:53:28.095Z,16.25
2018-06-24T04:55:57.142Z,16.26
2018-06-24T04:58:26.093Z,16.08
2018-06-24T05:00:55.103Z,15.95
2018-06-24T05:03:24.089Z,15.99
2018-06-24T05:05:53.111Z,16.03
2018-06-24T05:08:22.159Z,16.20
2018-06-24T05:10:51.171Z,16.37
2018-06-24T05:13:20.127Z,16.33
2018-06-24T05:15:49.132Z,16.39
2018-06-24T05:18:18.089Z,16.41
2018-06-24T05:20:47.157Z,16.46
2018-06-24T05:23:16.113Z,16.42
2018-06-24T05:25:45.115Z,16.27
2018-06-24T05:28:14.079Z,16.13
2018-06-24T05:30:43.137Z,16.13
2018-06-24T05:33:12.079Z,16.12
2018-06-24T05:35:41.066Z,16.11
2018-06-24T05:38:10.024Z,16.24
2018-06-24T05:40:39.101Z,16.32
2018-06-24T05:43:08.113Z,16.52
2018-06-24T05:45:37.102Z,16.63
2018-06-24T05:48:06.534Z,16.76
2018-06-24T05:50:35.534Z,16.89
2018-06-24T05:53:04.737Z,16.99
2018-06-24T05:55:33.831Z,16.98
2018-06-24T05:58:02.796Z,17.12
2018-06-24T06:00:31.748Z,17.27
2018-06-24T06:03:00.807Z,17.09
2018-06-24T06:05:29.706Z,16.96
2018-06-24T06:07:58.708Z,17.01
2018-06-24T06:10:27.848Z,17.09
2018-06-24T06:12:56.769Z,17.51
2018-06-24T06:15:25.810Z,18.10
2018-06-24T06:17:54.786Z,19.31
2018-06-24T06:20:23.747Z,19.81
2018-06-24T06:22:52.754Z,20.67
2018-06-24T06:25:21.724Z,20.85
2018-06-24T06:27:50.724Z,20.18
2018-06-24T06:30:19.750Z,19.59
2018-06-24T06:32:48.760Z,19.33
2018-06-24T06:35:17.700Z,18.97
2018-06-24T06:37:46.746Z,19.03
2018-06-24T06:40:15.702Z,18.79
2018-06-24T06:42:44.810Z,19.34
2018-06-24T06:45:13.918Z,21.69
2018-06-24T06:47:42.903Z,22.61
2018-06-24T06:50:11.843Z,21.93
2018-06-24T06:52:40.838Z,23.39
2018-06-24T06:55:09.774Z,25.06
2018-06-24T06:57:38.769Z,24.52
2018-06-24T07:00:07.875Z,25.29
2018-06-24T07:02:36.833Z,24.40
2018-06-24T07:05:05.851Z,23.35
2018-06-24T07:07:34.835Z,24.42
2018-06-24T07:10:03.842Z,24.99
2018-06-24T07:12:32.824Z,25.50
2018-06-24T07:15:01.846Z,23.87
2018-06-24T07:17:30.781Z,23.73
2018-06-24T07:19:59.774Z,25.26
2018-06-24T07:22:28.727Z,26.98
2018-06-24T07:24:57.777Z,27.66
2018-06-24T07:27:26.722Z,26.93
2018-06-24T07:29:55.684Z,26.63
2018-06-24T07:32:24.643Z,26.14
2018-06-24T07:34:53.623Z,26.31
2018-06-24T07:37:22.556Z,26.19
2018-06-24T07:39:51.535Z,26.20
2018-06-24T07:42:20.517Z,25.74
2018-06-24T07:44:49.506Z,25.68
2018-06-24T07:47:18.504Z,25.69
2018-06-24T07:49:47.595Z,25.31
2018-06-24T07:52:16.524Z,24.70
2018-06-24T07:54:45.505Z,23.70
2018-06-24T07:57:14.468Z,24.07
2018-06-24T07:59:43.498Z,24.44
2018-06-24T08:02:12.475Z,24.62
2018-06-24T08:04:41.543Z,23.69
2018-06-24T08:07:10.485Z,22.62
2018-06-24T08:09:39.504Z,22.81
2018-06-24T08:12:08.462Z,23.07
2018-06-24T08:14:37.448Z,23.67
2018-06-24T08:17:06.396Z,23.99
2018-06-24T08:19:35.382Z,23.84
2018-06-24T08:22:04.439Z,23.90
2018-06-24T08:24:33.459Z,23.19
2018-06-24T08:27:02.415Z,22.95
2018-06-24T08:29:31.462Z,22.87
2018-06-24T08:32:00.813Z,23.35
2018-06-24T08:34:29.869Z,22.60
2018-06-24T08:36:59.160Z,22.30
2018-06-24T08:39:28.346Z,22.77
2018-06-24T08:41:57.316Z,23.03
2018-06-24T08:44:26.225Z,22.58
2018-06-24T08:46:55.230Z,22.66
2018-06-24T08:49:24.171Z,22.91
2018-06-24T08:51:53.133Z,23.59
2018-06-24T08:54:22.087Z,23.02
2018-06-24T08:56:51.066Z,23.56
2018-06-24T08:59:20.056Z,23.71
2018-06-24T09:01:49.054Z,24.14
2018-06-24T09:04:18.005Z,24.36
2018-06-24T09:06:46.973Z,24.55
2018-06-24T09:09:16.019Z,24.43
2018-06-24T09:11:44.989Z,24.43
2018-06-24T09:14:13.927Z,24.39
2018-06-24T09:16:42.906Z,24.49
2018-06-24T09:19:11.968Z,25.11
2018-06-24T09:21:40.919Z,25.62
2018-06-24T09:24:09.879Z,25.86
2018-06-24T09:26:38.850Z,25.73
2018-06-24T09:29:07.902Z,25.27
2018-06-24T09:31:36.893Z,25.27
2018-06-24T09:34:05.831Z,25.26
2018-06-24T09:36:34.790Z,25.80
2018-06-24T09:39:04.008Z,26.08
2018-06-24T09:41:32.987Z,26.58
2018-06-24T09:44:01.918Z,26.07
2018-06-24T09:46:30.920Z,26.55
2018-06-24T09:48:59.852Z,26.32
2018-06-24T09:51:28.907Z,25.31
2018-06-24T09:53:57.854Z,25.43
2018-06-24T09:56:26.847Z,25.07
2018-06-24T09:58:55.814Z,24.99
2018-06-24T10:01:24.775Z,24.73
2018-06-24T10:03:53.762Z,26.16
2018-06-24T10:06:22.727Z,27.16
2018-06-24T10:08:51.867Z,27.46
2018-06-24T10:11:21.066Z,26.82
2018-06-24T10:13:50.479Z,28.54
2018-06-24T10:16:19.596Z,28.16
2018-06-24T10:18:48.738Z,28.08
2018-06-24T10:21:17.687Z,25.90
2018-06-24T10:23:46.699Z,26.90
2018-06-24T10:26:15.772Z,26.02
2018-06-24T10:28:44.799Z,26.75
2018-06-24T10:31:13.743Z,30.34
2018-06-24T10:33:42.918Z,33.20
2018-06-24T10:36:13.317Z,33.92
2018-06-24T10:38:42.737Z,34.36
2018-06-24T10:41:12.114Z,32.57
2018-06-24T10:43:41.148Z,30.03
2018-06-24T10:46:10.071Z,29.95
2018-06-24T10:48:39.180Z,29.27
2018-06-24T10:51:08.191Z,29.70
2018-06-24T10:53:37.172Z,29.71
2018-06-24T10:56:06.258Z,30.19
2018-06-24T10:58:35.237Z,28.87
2018-06-24T11:01:04.210Z,28.97
2018-06-24T11:03:33.218Z,28.48
2018-06-24T11:06:02.168Z,27.84
2018-06-24T11:08:31.139Z,28.63
2018-06-24T11:11:00.047Z,28.80
2018-06-24T11:13:28.997Z,28.32
2018-06-24T11:15:57.977Z,28.56
2018-06-24T11:18:26.947Z,28.23
2018-06-24T11:20:55.941Z,27.86
2018-06-24T11:23:24.865Z,27.86
2018-06-24T11:25:53.837Z,28.13
2018-06-24T11:28:22.776Z,28.45
2018-06-24T11:30:51.754Z,28.58
2018-06-24T11:33:20.708Z,28.51
2018-06-24T11:35:49.700Z,28.90
2018-06-24T11:38:18.744Z,29.40
2018-06-24T11:40:47.773Z,28.91
2018-06-24T11:43:16.826Z,29.38
2018-06-24T11:45:45.814Z,29.60
2018-06-24T11:48:14.762Z,29.47
2018-06-24T11:50:43.750Z,29.93
2018-06-24T11:53:12.688Z,29.93
2018-06-24T11:55:41.681Z,29.60
2018-06-24T11:58:10.622Z,29.55
2018-06-24T12:00:39.620Z,28.27
2018-06-24T12:03:08.886Z,27.48
2018-06-24T12:05:38.079Z,27.49
2018-06-24T12:08:07.309Z,27.83
2018-06-24T12:10:36.606Z,27.13
2018-06-24T12:13:06.316Z,27.66
2018-06-24T12:15:35.777Z,27.72
2018-06-24T12:18:05.156Z,27.60
2018-06-24T12:20:34.122Z,27.81
2018-06-24T12:23:03.080Z,27.83
2018-06-24T12:25:32.295Z,26.97
2018-06-24T12:28:01.265Z,27.24
2018-06-24T12:30:30.205Z,26.92
2018-06-24T12:32:59.169Z,27.09
2018-06-24T12:35:28.161Z,26.73
2018-06-24T12:37:57.590Z,27.37
2018-06-24T12:40:31.586Z,27.86
2018-06-24T12:43:02.111Z,27.18
2018-06-24T12:45:31.666Z,26.78
2018-06-24T12:48:01.276Z,26.12
2018-06-24T12:50:30.610Z,26.57
2018-06-24T12:52:59.975Z,27.02
2018-06-24T12:55:29.206Z,27.80
2018-06-24T12:57:58.454Z,27.45
2018-06-24T13:00:28.251Z,27.51
2018-06-24T13:02:57.045Z,27.53
2018-06-24T13:05:26.307Z,27.37
2018-06-24T13:07:55.445Z,27.49
2018-06-24T13:10:24.820Z,27.33
2018-06-24T13:12:54.162Z,28.00
2018-06-24T13:15:23.423Z,26.99
2018-06-24T13:17:52.866Z,27.40
2018-06-24T13:20:22.146Z,27.43
2018-06-24T13:22:51.445Z,26.92
2018-06-24T13:25:20.935Z,26.83
2018-06-24T13:27:50.159Z,27.50
2018-06-24T13:30:19.429Z,26.80
2018-06-24T13:32:48.959Z,26.88
2018-06-24T13:35:18.264Z,26.39
2018-06-24T13:37:47.674Z,26.12
2018-06-24T13:40:17.055Z,25.45
2018-06-24T13:42:46.463Z,25.33
2018-06-24T13:45:15.732Z,25.86
2018-06-24T13:47:45.073Z,25.72
2018-06-24T13:50:14.467Z,26.28
2018-06-24T13:52:43.756Z,26.46
2018-06-24T13:55:13.193Z,26.80
2018-06-24T13:57:42.434Z,26.51
2018-06-24T14:00:11.671Z,27.27
2018-06-24T14:02:40.598Z,27.24
2018-06-24T14:05:09.606Z,27.07
2018-06-24T14:07:38.571Z,26.29
2018-06-24T14:10:07.553Z,27.03
2018-06-24T14:12:36.465Z,26.47
2018-06-24T14:15:05.815Z,26.61
2018-06-24T14:17:35.233Z,26.68
2018-06-24T14:20:04.560Z,25.84
2018-06-24T14:22:33.832Z,25.84
2018-06-24T14:25:03.135Z,25.76
2018-06-24T14:27:32.396Z,26.45
2018-06-24T14:30:01.872Z,26.10
2018-06-24T14:32:31.147Z,26.36
2018-06-24T14:35:00.456Z,25.62
2018-06-24T14:37:29.716Z,26.10
2018-06-24T14:39:59.075Z,26.07
2018-06-24T14:42:28.319Z,26.04
2018-06-24T14:44:57.571Z,26.04
2018-06-24T14:47:26.900Z,25.69
2018-06-24T14:49:56.146Z,25.69
2018-06-24T14:52:25.321Z,25.73
2018-06-24T14:54:54.574Z,25.75
2018-06-24T14:57:25.967Z,26.10
2018-06-24T14:59:55.638Z,26.16
2018-06-24T15:02:25.143Z,25.95
2018-06-24T15:04:54.377Z,25.87
2018-06-24T15:07:23.626Z,25.60
2018-06-24T15:09:53.194Z,25.27
2018-06-24T15:12:22.548Z,25.68
2018-06-24T15:14:51.807Z,25.68
2018-06-24T15:17:21.223Z,25.71
2018-06-24T15:19:50.707Z,25.51
2018-06-24T15:22:19.954Z,25.36
2018-06-24T15:24:49.234Z,25.83
2018-06-24T15:27:18.629Z,25.72
2018-06-24T15:29:47.882Z,25.56
2018-06-24T15:32:16.882Z,25.57
2018-06-24T15:34:46.087Z,25.66
2018-06-24T15:37:15.334Z,25.14
2018-06-24T15:39:44.608Z,25.59
2018-06-24T15:42:14.438Z,25.23
2018-06-24T15:44:43.822Z,25.65
2018-06-24T15:47:13.303Z,25.67
2018-06-24T15:49:42.595Z,25.73
2018-06-24T15:52:11.836Z,26.05
2018-06-24T15:54:40.780Z,25.70
2018-06-24T15:57:09.793Z,25.58
2018-06-24T15:59:38.784Z,25.67
2018-06-24T16:02:08.786Z,25.96
2018-06-24T16:04:37.918Z,25.57
2018-06-24T16:07:07.243Z,25.93
2018-06-24T16:09:36.611Z,25.83
2018-06-24T16:12:05.854Z,24.77
2018-06-24T16:14:35.110Z,24.82
2018-06-24T16:17:04.442Z,24.84
2018-06-24T16:19:33.898Z,24.77
2018-06-24T16:22:03.140Z,24.91
2018-06-24T16:24:32.525Z,24.90
2018-06-24T16:27:02.039Z,24.35
2018-06-24T16:29:31.416Z,24.74
2018-06-24T16:32:00.673Z,24.91
2018-06-24T16:34:29.930Z,24.56
2018-06-24T16:36:59.246Z,24.49
2018-06-24T16:39:29.111Z,24.57
2018-06-24T16:41:58.875Z,24.82
2018-06-24T16:44:28.296Z,24.14
2018-06-24T16:46:57.564Z,24.33
2018-06-24T16:49:26.876Z,24.35
2018-06-24T16:51:56.651Z,23.93
2018-06-24T16:54:26.355Z,24.24
2018-06-24T16:56:55.703Z,24.21
2018-06-24T16:59:25.015Z,23.96
2018-06-24T17:01:54.265Z,24.35
2018-06-24T17:04:23.254Z,24.08
2018-06-24T17:06:52.199Z,23.74
2018-06-24T17:09:21.386Z,23.81
2018-06-24T17:11:50.294Z,23.57
2018-06-24T17:14:19.254Z,24.08
2018-06-24T17:16:48.150Z,23.96
2018-06-24T17:19:17.128Z,24.08
2018-06-24T17:21:46.175Z,23.86
2018-06-24T17:24:15.155Z,24.20
2018-06-24T17:26:44.059Z,24.08
2018-06-24T17:29:13.045Z,23.84
2018-06-24T17:31:42.386Z,24.06
2018-06-24T17:34:11.757Z,24.37
2018-06-24T17:36:41.255Z,23.54
2018-06-24T17:39:12.461Z,23.82
2018-06-24T17:41:41.994Z,23.36
2018-06-24T17:44:11.291Z,23.69
2018-06-24T17:46:40.562Z,23.62
2018-06-24T17:49:09.755Z,23.60
2018-06-24T17:51:38.870Z,24.10
2018-06-24T17:54:08.163Z,24.07
2018-06-24T17:56:37.506Z,23.85
2018-06-24T17:59:06.680Z,23.44
2018-06-24T18:01:36.090Z,23.07
2018-06-24T18:04:05.374Z,23.34
2018-06-24T18:06:34.710Z,23.07
2018-06-24T18:09:04.415Z,22.63
2018-06-24T18:11:33.695Z,23.33
2018-06-24T18:14:02.994Z,22.53
2018-06-24T18:16:32.534Z,22.59
2018-06-24T18:19:01.665Z,22.32
2018-06-24T18:21:30.904Z,22.29
2018-06-24T18:24:00.300Z,22.39
2018-06-24T18:26:29.515Z,22.07
2018-06-24T18:28:59.000Z,22.33
2018-06-24T18:31:28.446Z,22.13
2018-06-24T18:33:57.675Z,21.97
2018-06-24T18:36:27.015Z,22.07
2018-06-24T18:38:56.358Z,21.85
2018-06-24T18:41:25.620Z,21.87
2018-06-24T18:43:54.983Z,21.87
2018-06-24T18:46:24.204Z,21.82
2018-06-24T18:48:53.386Z,21.12
2018-06-24T18:51:22.686Z,21.47
2018-06-24T18:53:51.976Z,21.88
2018-06-24T18:56:21.202Z,21.08
2018-06-24T18:58:50.484Z,21.27
2018-06-24T19:01:19.617Z,20.82
2018-06-24T19:03:49.074Z,20.42
2018-06-24T19:06:18.318Z,20.85
2018-06-24T19:08:47.470Z,21.06
2018-06-24T19:11:16.594Z,21.13
2018-06-24T19:13:46.183Z,21.07
2018-06-24T19:16:15.534Z,20.85
2018-06-24T19:18:45.257Z,21.41
2018-06-24T19:21:14.531Z,21.13
2018-06-24T19:23:43.883Z,21.23
2018-06-24T19:26:13.122Z,20.76
2018-06-24T19:28:48.874Z,21.18
2018-06-24T19:31:18.270Z,21.33
2018-06-24T19:33:47.561Z,21.10
2018-06-24T19:36:16.772Z,20.89
2018-06-24T19:38:46.101Z,20.65
2018-06-24T19:41:15.383Z,20.75
2018-06-24T19:43:44.694Z,20.61
2018-06-24T19:46:13.946Z,20.95
2018-06-24T19:48:43.201Z,20.92
2018-06-24T19:51:12.481Z,20.89
2018-06-24T19:53:41.783Z,20.60
2018-06-24T19:56:10.873Z,20.75
2018-06-24T19:58:40.376Z,20.86
2018-06-24T20:01:09.657Z,20.94
2018-06-24T20:03:38.895Z,20.89
2018-06-24T20:06:08.117Z,20.91
2018-06-24T20:08:37.744Z,20.80
2018-06-24T20:11:07.049Z,20.79
2018-06-24T20:13:36.190Z,20.97
2018-06-24T20:16:05.364Z,21.25
2018-06-24T20:18:34.844Z,21.12
2018-06-24T20:21:03.729Z,21.18
2018-06-24T20:23:32.682Z,21.26
2018-06-24T20:26:01.854Z,21.34
2018-06-24T20:28:31.182Z,21.27
2018-06-24T20:31:00.453Z,20.86
2018-06-24T20:33:29.912Z,21.28
2018-06-24T20:35:59.124Z,21.14
2018-06-24T20:38:28.369Z,20.96
2018-06-24T20:40:57.624Z,21.06
2018-06-24T20:43:26.769Z,20.88
2018-06-24T20:45:56.071Z,20.98
2018-06-24T20:48:25.382Z,21.02
2018-06-24T20:50:54.726Z,21.10
2018-06-24T20:53:24.066Z,21.27
2018-06-24T20:55:53.370Z,21.09
2018-06-24T20:58:22.671Z,20.96
2018-06-24T21:00:52.081Z,21.00
2018-06-24T21:03:21.342Z,20.70
2018-06-24T21:05:50.789Z,20.71
2018-06-24T21:08:20.155Z,20.89
2018-06-24T21:10:49.487Z,20.94
2018-06-24T21:13:18.666Z,20.90
2018-06-24T21:15:48.074Z,20.97
2018-06-24T21:18:17.440Z,20.84
2018-06-24T21:20:46.899Z,20.74
2018-06-24T21:23:16.186Z,20.74
2018-06-24T21:25:45.495Z,20.37
2018-06-24T21:28:14.659Z,20.60
2018-06-24T21:30:43.994Z,20.59
2018-06-24T21:33:13.167Z,20.22
2018-06-24T21:35:42.594Z,20.55
2018-06-24T21:38:11.853Z,20.69
2018-06-24T21:40:41.089Z,20.49
2018-06-24T21:43:10.361Z,20.87
2018-06-24T21:45:39.712Z,20.72
2018-06-24T21:48:09.224Z,20.43
2018-06-24T21:50:38.587Z,20.27
2018-06-24T21:53:07.866Z,19.94
2018-06-24T21:55:37.203Z,20.56
2018-06-24T21:58:07.124Z,20.44
2018-06-24T22:00:36.438Z,20.15
2018-06-24T22:03:05.822Z,20.54
2018-06-24T22:05:35.215Z,20.24
2018-06-24T22:08:04.619Z,20.18
2018-06-24T22:10:34.020Z,20.34
2018-06-24T22:13:03.335Z,20.11
2018-06-24T22:15:32.697Z,20.38
2018-06-24T22:18:01.943Z,20.61
2018-06-24T22:20:31.315Z,20.28
2018-06-24T22:23:00.626Z,20.70
2018-06-24T22:25:29.898Z,20.16
2018-06-24T22:27:59.137Z,20.23
2018-06-24T22:30:28.590Z,20.25
2018-06-24T22:32:57.829Z,20.22
2018-06-24T22:35:27.130Z,20.18
2018-06-24T22:37:56.526Z,20.29
2018-06-24T22:40:25.938Z,20.53
2018-06-24T22:42:55.253Z,20.53
2018-06-24T22:45:24.531Z,20.71
2018-06-24T22:47:53.841Z,20.16
2018-06-24T22:50:23.204Z,20.44
2018-06-24T22:52:52.429Z,20.42
2018-06-24T22:55:21.802Z,20.74
2018-06-24T22:57:51.091Z,20.38
2018-06-24T23:00:20.337Z,20.46
2018-06-24T23:02:49.635Z,20.25
2018-06-24T23:05:18.890Z,20.30
2018-06-24T23:07:48.252Z,20.54
2018-06-24T23:10:17.524Z,20.78
2018-06-24T23:12:46.759Z,20.65
2018-06-24T23:15:16.009Z,20.62
2018-06-24T23:17:45.243Z,20.54
2018-06-24T23:20:14.634Z,20.34
2018-06-24T23:22:43.962Z,20.52
2018-06-24T23:25:13.222Z,20.37
2018-06-24T23:27:42.552Z,20.32
2018-06-24T23:30:11.823Z,20.12
2018-06-24T23:32:41.131Z,19.47
2018-06-24T23:35:10.448Z,19.63
2018-06-24T23:37:39.813Z,19.44
2018-06-24T23:40:09.038Z,19.68
2018-06-24T23:42:38.348Z,20.21
2018-06-24T23:45:07.644Z,20.36
2018-06-24T23:47:37.052Z,20.08
2018-06-24T23:50:06.358Z,20.35
2018-06-24T23:52:35.648Z,20.51
2018-06-24T23:55:04.961Z,20.56
2018-06-24T23:57:34.231Z,20.54
